Pagrindinis puslapis
METAR-TAF:

METAR-TAF

Oro uostai :

Khon Kaen, Tailandas

platuma: 16-26N, ilguma: 102-50E, Aukštis: 165 m

Dabartinis oras

Ataskaita buvo paskelbta 51 minutes, ne 04:00 UTC
Vėjas 8 kt iš Šiaurės Rytų, svyruoja nuo Šiaurės ir Rytų
Temperatūra 31°C
Drėgmė 63%
Slėgis 1011 hPa
Matomumas: 8000 m
Su prošvaistėmis ne aukštis 2500 ft

METAR: VTUK 210400Z 05008KT 010V100 8000 BKN025 31/23 Q1011 NOSIG

Laikas: 11:51 (04:51 UTC)

Prognozė

Ataskaita buvo paskelbta 5 valandos ir 51 minutes, ne 23:00 UTC
Prognozė galioja nuo 21 metu 00 UTC su 21 metu 24 UTC
Vėjas 4 kt iš Šiaurės/Šiaurės Rytų
Matomumas 10 km arba daugiau
Išsisklaidę debesys ne aukštis 2500 ft
Laikinai
nuo 21 metu 06 UTC su 21 metu 13 UTC
Matomumas: 5000 m
Mažai debesys ne aukštis 1800 ft, Liūtiniai kamuoliniai debesys.
perkūnija, lietus

TAF: VTUK 202300Z 2100/2124 03004KT 9999 SCT025 TEMPO 2106/2113 5000 TSRA FEW018CB

Orai ataskaitas ir orų prognozės (METAR, TAF).

turimą stotys yra geltonos ir raudonos taškus žemėlapyje.

Perkelti pele per norėdami pamatyti stoties vardą.

Tada spustelėkite, norėdami matyti oro stebėjimo ir prognozės.

Norėdami pakeisti žemėlapį: spustelėkite ant žalios mygtukų su juodo kryžiaus žemyn,; žalią mygtuką su brūkšneliu, jei norite nutolinti; arba žalių rodyklių gretimoms žemėlapius.


METAR-TAF: